createdAt,value
2018-01-15T00:00:09.188Z,2.95
2018-01-15T00:01:19.234Z,2.95
2018-01-15T00:02:29.283Z,2.93
2018-01-15T00:03:39.321Z,2.95
2018-01-15T00:04:49.122Z,2.93
2018-01-15T00:05:58.907Z,3.01
2018-01-15T00:07:08.711Z,2.99
2018-01-15T00:08:18.746Z,2.96
2018-01-15T00:09:28.798Z,2.98
2018-01-15T00:10:38.860Z,2.98
2018-01-15T00:11:48.901Z,3.02
2018-01-15T00:12:58.697Z,3.11
2018-01-15T00:14:09.656Z,3.11
2018-01-15T00:15:19.721Z,3.05
2018-01-15T00:16:29.552Z,3.11
2018-01-15T00:17:39.589Z,3.14
2018-01-15T00:18:49.640Z,3.02
2018-01-15T00:19:59.692Z,3.02
2018-01-15T00:21:09.729Z,2.99
2018-01-15T00:22:19.811Z,3.03
2018-01-15T00:23:29.846Z,2.98
2018-01-15T00:24:39.637Z,2.98
2018-01-15T00:25:49.678Z,3.02
2018-01-15T00:26:59.453Z,3.03
2018-01-15T00:28:09.485Z,2.98
2018-01-15T00:29:19.309Z,2.95
2018-01-15T00:30:29.368Z,2.98
2018-01-15T00:31:39.206Z,2.98
2018-01-15T00:32:49.002Z,3.02
2018-01-15T00:33:59.045Z,3.01
2018-01-15T00:35:08.815Z,2.95
2018-01-15T00:36:18.601Z,2.99
2018-01-15T00:37:28.695Z,2.95
2018-01-15T00:38:38.736Z,2.95
2018-01-15T00:39:48.773Z,3.02
2018-01-15T00:40:58.812Z,2.96
2018-01-15T00:42:08.871Z,3.02
2018-01-15T00:43:18.656Z,2.96
2018-01-15T00:44:28.195Z,2.96
2018-01-15T00:45:37.974Z,2.98
2018-01-15T00:46:48.008Z,2.96
2018-01-15T00:47:57.805Z,2.95
2018-01-15T00:49:07.849Z,2.95
2018-01-15T00:50:17.901Z,2.96
2018-01-15T00:51:27.955Z,2.91
2018-01-15T00:52:37.752Z,3.01
2018-01-15T00:53:48.631Z,2.96
2018-01-15T00:54:58.688Z,2.93
2018-01-15T00:56:08.732Z,2.95
2018-01-15T00:57:18.514Z,2.99
2018-01-15T00:58:28.561Z,2.98
2018-01-15T00:59:38.622Z,2.99
2018-01-15T01:00:48.428Z,2.98
2018-01-15T01:01:58.197Z,3.02
2018-01-15T01:03:08.243Z,3.02
2018-01-15T01:04:17.767Z,3.03
2018-01-15T01:05:27.800Z,3.02
2018-01-15T01:06:37.568Z,3.02
2018-01-15T01:07:47.628Z,2.98
2018-01-15T01:08:57.418Z,2.98
2018-01-15T01:10:07.477Z,2.99
2018-01-15T01:11:17.524Z,3.03
2018-01-15T01:12:27.560Z,3.03
2018-01-15T01:13:37.333Z,3.05
2018-01-15T01:14:46.605Z,3.08
2018-01-15T01:15:56.182Z,3.03
2018-01-15T01:17:05.959Z,3.06
2018-01-15T01:18:16.050Z,3.05
2018-01-15T01:19:25.846Z,3.09
2018-01-15T01:20:35.885Z,3.14
2018-01-15T01:21:45.674Z,3.09
2018-01-15T01:22:55.723Z,3.09
2018-01-15T01:24:05.858Z,3.09
2018-01-15T01:25:15.897Z,3.16
2018-01-15T01:26:25.688Z,3.05
2018-01-15T01:27:35.721Z,3.03
2018-01-15T01:28:45.761Z,3.08
2018-01-15T01:29:55.838Z,3.05
2018-01-15T01:31:05.660Z,3.13
2018-01-15T01:32:15.445Z,3.16
2018-01-15T01:33:25.500Z,3.16
2018-01-15T01:34:35.294Z,3.11
2018-01-15T01:35:45.387Z,3.13
2018-01-15T01:36:55.414Z,3.11
2018-01-15T01:38:05.221Z,3.14
2018-01-15T01:39:15.303Z,3.16
2018-01-15T01:40:25.086Z,3.13
2018-01-15T01:41:34.865Z,3.13
2018-01-15T01:42:44.939Z,3.09
2018-01-15T01:43:54.992Z,3.13
2018-01-15T01:45:05.049Z,3.09
2018-01-15T01:46:15.094Z,3.11
2018-01-15T01:47:25.191Z,3.14
2018-01-15T01:48:35.227Z,3.09
2018-01-15T01:49:45.016Z,3.05
2018-01-15T01:50:55.102Z,3.08
2018-01-15T01:52:05.151Z,3.08
2018-01-15T01:53:14.934Z,3.16
2018-01-15T01:54:24.979Z,3.08
2018-01-15T01:55:35.015Z,3.11
2018-01-15T01:56:45.058Z,3.11
2018-01-15T01:57:55.108Z,3.08
2018-01-15T01:59:05.221Z,3.08
2018-01-15T02:00:15.273Z,3.06
2018-01-15T02:01:25.320Z,3.11
2018-01-15T02:02:35.097Z,3.08
2018-01-15T02:03:45.150Z,2.96
2018-01-15T02:04:55.299Z,3.05
2018-01-15T02:06:05.345Z,2.95
2018-01-15T02:07:15.396Z,3.02
2018-01-15T02:08:25.173Z,2.98
2018-01-15T02:09:35.233Z,2.98
2018-01-15T02:10:45.017Z,2.93
2018-01-15T02:11:55.053Z,2.96
2018-01-15T02:13:05.083Z,2.96
2018-01-15T02:14:15.141Z,2.91
2018-01-15T02:15:25.177Z,2.95
2018-01-15T02:16:35.216Z,2.91
2018-01-15T02:17:45.259Z,2.87
2018-01-15T02:18:55.289Z,2.95
2018-01-15T02:20:05.329Z,2.88
2018-01-15T02:21:15.371Z,2.93
2018-01-15T02:22:26.260Z,2.83
2018-01-15T02:23:36.331Z,2.83
2018-01-15T02:24:46.116Z,2.84
2018-01-15T02:25:55.895Z,2.9
2018-01-15T02:27:05.946Z,2.81
2018-01-15T02:28:16.049Z,2.81
2018-01-15T02:29:26.104Z,2.8
2018-01-15T02:30:36.144Z,2.8
2018-01-15T02:31:46.181Z,2.78
2018-01-15T02:32:55.973Z,2.77
2018-01-15T02:34:05.869Z,2.76
2018-01-15T02:35:15.955Z,2.72
2018-01-15T02:36:25.990Z,2.73
2018-01-15T02:37:36.044Z,2.7
2018-01-15T02:38:46.146Z,2.69
2018-01-15T02:39:55.993Z,2.7
2018-01-15T02:41:05.509Z,2.77
2018-01-15T02:42:15.548Z,2.78
2018-01-15T02:43:25.593Z,2.62
2018-01-15T02:44:35.378Z,2.78
2018-01-15T02:45:45.478Z,2.72
2018-01-15T02:46:55.533Z,2.7
2018-01-15T02:48:05.322Z,2.69
2018-01-15T02:49:15.112Z,2.66
2018-01-15T02:50:24.900Z,2.72
2018-01-15T02:51:35.000Z,2.76
2018-01-15T02:52:45.048Z,2.78
2018-01-15T02:53:55.705Z,2.69
2018-01-15T02:55:05.752Z,2.62
2018-01-15T02:56:15.792Z,2.67
2018-01-15T02:57:25.626Z,2.62
2018-01-15T02:58:35.402Z,2.63
2018-01-15T02:59:45.178Z,2.72
2018-01-15T03:00:55.239Z,2.72
2018-01-15T03:02:05.310Z,2.67
2018-01-15T03:03:15.358Z,2.7
2018-01-15T03:34:29.073Z,0.1
2018-01-15T03:35:39.134Z,0.2
2018-01-15T03:36:49.171Z,0.14
2018-01-15T03:37:59.208Z,0.2
2018-01-15T03:39:09.247Z,0.34
2018-01-15T03:40:19.286Z,0.38
2018-01-15T03:41:29.361Z,0.53
2018-01-15T03:42:39.403Z,0.61
2018-01-15T03:43:49.185Z,0.79
2018-01-15T03:45:00.058Z,0.92
2018-01-15T03:46:10.228Z,1.11
2018-01-15T03:47:20.294Z,1.22
2018-01-15T03:48:30.341Z,1.35
2018-01-15T03:49:40.373Z,1.47
2018-01-15T03:50:50.429Z,1.64
2018-01-15T03:52:00.511Z,1.66
2018-01-15T03:53:10.552Z,1.74
2018-01-15T03:54:20.333Z,1.87
2018-01-15T03:55:30.378Z,1.97
2018-01-15T03:56:40.414Z,1.97
2018-01-15T03:57:50.510Z,2.02
2018-01-15T03:59:00.031Z,2.09
2018-01-15T04:00:10.083Z,2.13
2018-01-15T04:01:20.118Z,2.23
2018-01-15T04:02:30.159Z,2.23
2018-01-15T04:03:39.720Z,2.3
2018-01-15T04:04:49.505Z,2.3
2018-01-15T04:05:59.312Z,2.31
2018-01-15T04:07:09.132Z,2.31
2018-01-15T04:08:18.656Z,2.29
2018-01-15T04:09:28.763Z,2.31
2018-01-15T04:10:38.806Z,2.31
2018-01-15T04:11:48.585Z,2.33
2018-01-15T04:12:58.625Z,2.27
2018-01-15T04:14:08.687Z,2.4
2018-01-15T04:15:18.768Z,2.4
2018-01-15T04:16:29.462Z,2.33
2018-01-15T04:17:39.505Z,2.4
2018-01-15T04:18:49.296Z,2.38
2018-01-15T04:19:59.338Z,2.3
2018-01-15T04:21:09.439Z,2.38
2018-01-15T04:22:19.488Z,2.42
2018-01-15T04:23:30.186Z,2.44
2018-01-15T04:24:41.086Z,2.34
2018-01-15T04:25:50.877Z,2.33
2018-01-15T04:27:00.922Z,2.41
2018-01-15T04:28:10.961Z,2.34
2018-01-15T04:29:20.746Z,2.34
2018-01-15T04:30:30.275Z,2.34
2018-01-15T04:31:40.320Z,2.33
2018-01-15T04:32:50.458Z,2.3
2018-01-15T04:34:00.521Z,2.31
2018-01-15T04:35:10.034Z,2.38
2018-01-15T04:36:20.073Z,2.36
2018-01-15T04:37:29.859Z,2.48
2018-01-15T04:38:39.960Z,2.41
2018-01-15T04:39:50.019Z,2.4
2018-01-15T04:40:59.821Z,2.45
2018-01-15T04:42:09.611Z,2.48
2018-01-15T04:43:19.676Z,2.44
2018-01-15T04:44:29.517Z,2.49
2018-01-15T04:45:39.578Z,2.49
2018-01-15T04:46:49.624Z,2.54
2018-01-15T04:47:59.669Z,2.47
2018-01-15T04:49:09.712Z,2.52
2018-01-15T04:50:19.499Z,2.51
2018-01-15T04:51:29.536Z,2.51
2018-01-15T04:52:39.559Z,2.48
2018-01-15T04:53:49.591Z,2.51
2018-01-15T04:54:58.850Z,2.45
2018-01-15T04:56:08.933Z,2.55
2018-01-15T04:57:18.974Z,2.47
2018-01-15T04:58:28.502Z,2.54
2018-01-15T04:59:38.544Z,2.54
2018-01-15T05:00:48.331Z,2.51
2018-01-15T05:01:58.131Z,2.48
2018-01-15T05:03:07.919Z,2.51
2018-01-15T05:04:17.967Z,2.51
2018-01-15T05:05:28.023Z,2.49
2018-01-15T05:06:38.774Z,2.49
2018-01-15T05:07:48.816Z,2.49
2018-01-15T05:08:58.862Z,2.4
2018-01-15T05:10:08.902Z,2.45
2018-01-15T05:11:18.688Z,2.41
2018-01-15T05:12:28.478Z,2.36
2018-01-15T05:13:38.522Z,2.36
2018-01-15T05:14:48.036Z,2.34
2018-01-15T05:15:58.089Z,2.38
2018-01-15T05:17:08.144Z,2.27
2018-01-15T05:18:18.192Z,2.33
2018-01-15T05:19:28.239Z,2.27
2018-01-15T05:20:38.017Z,2.26
2018-01-15T05:21:48.052Z,2.31
2018-01-15T05:22:58.095Z,2.24
2018-01-15T05:24:08.135Z,2.26
2018-01-15T05:25:18.171Z,2.24
2018-01-15T05:26:27.699Z,2.26
2018-01-15T05:27:37.756Z,2.33
2018-01-15T05:28:47.798Z,2.36
2018-01-15T05:29:57.852Z,2.26
2018-01-15T05:31:07.939Z,2.29
2018-01-15T05:32:17.992Z,2.23
2018-01-15T05:33:28.039Z,2.23
2018-01-15T05:34:37.835Z,2.12
2018-01-15T05:35:47.886Z,2.18
2018-01-15T05:36:57.972Z,2.18
2018-01-15T05:38:08.011Z,2.24
2018-01-15T05:39:17.795Z,2.2
2018-01-15T05:40:27.584Z,2.16
2018-01-15T05:41:37.635Z,2.12
2018-01-15T05:42:47.169Z,2.08
2018-01-15T05:43:57.276Z,2.01
2018-01-15T05:45:07.043Z,2.02
2018-01-15T05:46:17.093Z,2.01
2018-01-15T05:47:26.870Z,2.01
2018-01-15T05:48:36.961Z,2.04
2018-01-15T05:49:47.004Z,1.94
2018-01-15T05:50:57.035Z,1.9
2018-01-15T05:52:07.066Z,1.92
2018-01-15T05:53:16.852Z,1.9
2018-01-15T05:54:26.939Z,1.89
2018-01-15T05:55:37.001Z,1.84
2018-01-15T05:56:47.291Z,1.87
2018-01-15T05:57:57.085Z,1.84
2018-01-15T05:59:06.878Z,1.92
2018-01-15T06:00:16.927Z,1.82
2018-01-15T06:01:26.980Z,1.79
2018-01-15T06:02:37.022Z,1.76
2018-01-15T06:03:47.065Z,1.82
2018-01-15T06:04:57.110Z,1.79
2018-01-15T06:06:07.207Z,1.72
2018-01-15T06:07:17.270Z,1.79
2018-01-15T06:08:27.296Z,1.87
2018-01-15T06:09:37.329Z,1.72
2018-01-15T06:10:47.365Z,1.78
2018-01-15T06:11:57.203Z,1.75
2018-01-15T06:13:07.270Z,1.79
2018-01-15T06:14:17.337Z,1.75
2018-01-15T06:15:27.122Z,1.79
2018-01-15T06:16:36.922Z,1.86
2018-01-15T06:17:46.722Z,1.9
2018-01-15T06:18:56.774Z,1.78
2018-01-15T06:20:06.811Z,1.84
2018-01-15T06:21:16.846Z,1.76
2018-01-15T06:22:26.638Z,1.72
2018-01-15T06:23:36.682Z,1.71
2018-01-15T06:24:46.716Z,1.84
2018-01-15T06:25:56.809Z,1.74
2018-01-15T06:27:06.858Z,1.71
2018-01-15T06:28:16.644Z,1.71
2018-01-15T06:29:26.484Z,1.74
2018-01-15T06:30:36.512Z,1.68
2018-01-15T06:31:46.557Z,1.72
2018-01-15T06:32:56.615Z,1.79
2018-01-15T06:34:06.680Z,1.84
2018-01-15T06:35:16.732Z,1.76
2018-01-15T06:36:26.754Z,1.82
2018-01-15T06:37:36.538Z,1.84
2018-01-15T06:38:46.574Z,1.74
2018-01-15T06:39:56.614Z,1.84
2018-01-15T06:41:06.428Z,1.74
2018-01-15T06:42:16.491Z,1.84
2018-01-15T06:43:26.543Z,1.82
2018-01-15T06:44:36.576Z,1.79
2018-01-15T06:45:46.370Z,1.72
2018-01-15T06:46:56.451Z,1.75
2018-01-15T06:48:06.497Z,1.76
2018-01-15T06:49:16.533Z,1.84
2018-01-15T06:50:26.311Z,1.72
2018-01-15T06:51:36.078Z,1.83
2018-01-15T06:52:46.178Z,1.79
2018-01-15T06:53:55.966Z,1.78
2018-01-15T06:55:06.046Z,1.76
2018-01-15T06:56:16.099Z,1.78
2018-01-15T06:57:26.133Z,1.79
2018-01-15T06:58:35.995Z,1.78
2018-01-15T06:59:45.772Z,1.84
2018-01-15T07:00:55.812Z,1.87
2018-01-15T07:02:05.841Z,1.92
2018-01-15T07:03:15.894Z,1.94
2018-01-15T07:04:25.994Z,1.93
2018-01-15T07:05:36.048Z,2.02
2018-01-15T07:06:46.081Z,2.05
2018-01-15T07:07:55.873Z,2.02
2018-01-15T07:09:05.921Z,1.97
2018-01-15T07:10:15.762Z,2.08
2018-01-15T07:11:25.544Z,2.11
2018-01-15T07:12:35.591Z,2.11
2018-01-15T07:13:45.639Z,2.22
2018-01-15T07:14:55.679Z,2.18
2018-01-15T07:16:05.773Z,2.27
2018-01-15T07:17:15.885Z,2.31
2018-01-15T07:18:26.164Z,2.36
2018-01-15T07:19:36.210Z,2.33
2018-01-15T07:20:45.986Z,2.38
2018-01-15T07:21:56.074Z,2.44
2018-01-15T07:23:06.119Z,2.42
2018-01-15T07:24:16.218Z,2.41
2018-01-15T07:25:25.998Z,2.48
2018-01-15T07:26:35.771Z,2.54
2018-01-15T07:27:45.816Z,2.52
2018-01-15T07:28:55.838Z,2.6
2018-01-15T07:30:05.881Z,2.58
2018-01-15T07:31:15.677Z,2.62
2018-01-15T07:32:25.704Z,2.62
2018-01-15T07:33:35.012Z,2.59
2018-01-15T07:34:44.844Z,2.6
2018-01-15T07:35:54.613Z,2.69
2018-01-15T07:37:04.386Z,2.77
2018-01-15T07:38:14.171Z,2.73
2018-01-15T07:39:25.421Z,2.6
2018-01-15T07:40:35.467Z,2.72
2018-01-15T07:41:45.494Z,2.7
2018-01-15T07:42:55.544Z,2.85
2018-01-15T07:44:05.316Z,2.77
2018-01-15T07:45:15.373Z,2.8
2018-01-15T07:46:25.441Z,2.87
2018-01-15T07:47:36.168Z,2.91
2018-01-15T07:48:46.412Z,2.93
2018-01-15T07:49:56.451Z,3.01
2018-01-15T07:51:06.510Z,2.98
2018-01-15T07:52:16.295Z,3.02
2018-01-15T07:53:26.074Z,3.06
2018-01-15T07:54:36.142Z,2.96
2018-01-15T07:55:45.941Z,2.98
2018-01-15T07:56:55.726Z,3.05
2018-01-15T07:58:06.447Z,3.13
2018-01-15T07:59:16.533Z,3.11
2018-01-15T08:00:26.606Z,3.21
2018-01-15T08:01:36.654Z,3.13
2018-01-15T08:02:46.501Z,3.16
2018-01-15T08:03:56.566Z,3.24
2018-01-15T08:05:06.623Z,3.34
2018-01-15T08:06:16.420Z,3.27
2018-01-15T08:07:26.442Z,3.3
2018-01-15T08:08:36.488Z,3.4
2018-01-15T08:09:46.558Z,3.37
2018-01-15T08:10:57.212Z,3.49
2018-01-15T08:12:07.248Z,3.51
2018-01-15T08:13:17.286Z,3.57
2018-01-15T08:14:27.356Z,3.64
2018-01-15T08:15:37.330Z,3.67
2018-01-15T08:16:47.111Z,3.69
2018-01-15T08:17:56.638Z,3.84
2018-01-15T08:19:06.701Z,3.89
2018-01-15T08:20:16.761Z,3.82
2018-01-15T08:21:26.825Z,3.92
2018-01-15T08:22:36.883Z,4.04
2018-01-15T08:23:46.937Z,4.02
2018-01-15T08:24:57.006Z,4.1
2018-01-15T08:26:06.784Z,4.22
2018-01-15T08:27:16.840Z,4.28
2018-01-15T08:28:26.968Z,4.35
2018-01-15T08:29:36.760Z,4.35
2018-01-15T08:30:46.859Z,4.56
2018-01-15T08:31:56.835Z,4.56
2018-01-15T08:33:06.667Z,4.54
2018-01-15T08:34:16.719Z,4.53
2018-01-15T08:35:26.505Z,4.66
2018-01-15T08:36:36.559Z,4.78
2018-01-15T08:37:46.609Z,4.76
2018-01-15T08:38:56.413Z,4.83
2018-01-15T08:40:06.481Z,4.78
2018-01-15T08:41:16.077Z,4.66
2018-01-15T08:42:26.161Z,4.54
2018-01-15T08:43:36.202Z,4.75
2018-01-15T08:44:45.993Z,4.83
2018-01-15T08:45:56.069Z,4.98
2018-01-15T08:47:05.951Z,5.09
2018-01-15T08:48:15.720Z,4.9
2018-01-15T08:49:25.770Z,4.97
2018-01-15T08:50:35.806Z,4.94
2018-01-15T08:51:45.860Z,5.05
2018-01-15T08:52:55.902Z,5.15
2018-01-15T08:54:05.976Z,5.3
2018-01-15T08:55:16.018Z,5.18
2018-01-15T08:56:26.075Z,5.37
2018-01-15T08:57:36.134Z,5.3
2018-01-15T08:58:45.923Z,5.44
2018-01-15T08:59:55.977Z,5.46
2018-01-15T09:01:06.166Z,5.44
2018-01-15T09:02:16.312Z,5.52
2018-01-15T09:03:26.354Z,5.37
2018-01-15T09:04:36.402Z,5.36
2018-01-15T09:05:47.099Z,5.39
2018-01-15T09:06:57.210Z,5.34
2018-01-15T09:08:06.744Z,5.39
2018-01-15T09:09:16.816Z,5.39
2018-01-15T09:10:26.874Z,5.39
2018-01-15T09:11:36.906Z,5.41
2018-01-15T09:12:46.777Z,5.44
2018-01-15T09:13:56.852Z,5.54
2018-01-15T09:15:07.730Z,5.42
2018-01-15T09:16:17.775Z,5.49
2018-01-15T09:17:27.826Z,5.46
2018-01-15T09:18:37.931Z,5.52
2018-01-15T09:19:47.728Z,5.46
2018-01-15T09:20:57.257Z,5.41
2018-01-15T09:22:07.293Z,5.55
2018-01-15T09:23:17.325Z,5.66
2018-01-15T09:24:27.354Z,5.78
2018-01-15T09:25:37.700Z,5.67
2018-01-15T09:26:47.749Z,5.67
2018-01-15T09:27:57.335Z,5.78
2018-01-15T09:29:07.110Z,5.8
2018-01-15T09:30:17.201Z,5.78
2018-01-15T09:31:27.258Z,5.67
2018-01-15T09:32:37.297Z,5.84
2018-01-15T09:33:47.091Z,5.99
2018-01-15T09:34:57.390Z,6.06
2018-01-15T09:36:09.100Z,6.14
2018-01-15T09:37:19.170Z,6.14
2018-01-15T09:38:29.213Z,6.1
2018-01-15T09:39:39.289Z,6.21
2018-01-15T09:40:48.842Z,6.31
2018-01-15T09:41:58.696Z,6.28
2018-01-15T09:43:08.758Z,6.1
2018-01-15T09:44:18.566Z,6.26
2018-01-15T09:45:28.126Z,6.26
2018-01-15T09:46:38.205Z,6.29
2018-01-15T09:47:48.021Z,6.06
2018-01-15T09:48:58.081Z,6.28
2018-01-15T09:50:08.234Z,6.49
2018-01-15T09:51:18.118Z,6.52
2018-01-15T09:52:27.888Z,6.49
2018-01-15T09:53:37.942Z,6.42
2018-01-15T09:54:47.999Z,6.34
2018-01-15T09:55:58.052Z,6.37
2018-01-15T09:57:08.519Z,6.46
2018-01-15T09:58:18.317Z,6.52
2018-01-15T09:59:28.390Z,6.44
2018-01-15T10:00:38.509Z,6.73
2018-01-15T10:01:48.563Z,6.65
2018-01-15T10:02:59.239Z,6.46
2018-01-15T10:04:09.298Z,6.44
2018-01-15T10:05:19.133Z,6.47
2018-01-15T10:06:30.146Z,6.58
2018-01-15T10:07:39.937Z,6.6
2018-01-15T10:08:50.002Z,6.58
2018-01-15T10:10:00.068Z,6.68
2018-01-15T10:11:10.170Z,6.49
2018-01-15T10:12:20.747Z,6.44
2018-01-15T10:13:30.285Z,6.54
2018-01-15T10:14:39.811Z,6.52
2018-01-15T10:15:50.678Z,6.29
2018-01-15T10:17:00.799Z,6.15
2018-01-15T10:18:10.852Z,6.06
2018-01-15T10:19:20.910Z,6.09
2018-01-15T10:20:31.028Z,6.03
2018-01-15T10:21:41.090Z,5.98
2018-01-15T10:22:50.880Z,6.06
2018-01-15T10:24:01.512Z,6.24
2018-01-15T10:25:13.322Z,6.25
2018-01-15T10:26:23.356Z,6.14
2018-01-15T10:27:33.417Z,6.17
2018-01-15T10:28:43.567Z,6.15
2018-01-15T10:29:53.101Z,6.06
2018-01-15T10:31:03.165Z,6.09
2018-01-15T10:32:13.234Z,6.07
2018-01-15T10:33:23.307Z,6.26
2018-01-15T10:34:33.094Z,6.24
2018-01-15T10:35:42.907Z,6.29
2018-01-15T10:36:53.621Z,6.25
2018-01-15T10:38:03.722Z,6.2
2018-01-15T10:39:14.939Z,6.24
2018-01-15T10:40:24.887Z,6.28
2018-01-15T10:41:34.954Z,6.18
2018-01-15T10:42:46.060Z,6.13
2018-01-15T10:43:56.110Z,6.09
2018-01-15T10:45:06.150Z,6.33
2018-01-15T10:46:16.874Z,6.25
2018-01-15T10:47:26.877Z,6.33
2018-01-15T10:48:36.602Z,6.26
2018-01-15T10:49:46.698Z,6.29
2018-01-15T10:50:56.697Z,6.46
2018-01-15T10:52:06.694Z,6.34
2018-01-15T10:53:16.704Z,6.47
2018-01-15T10:54:26.703Z,6.44
2018-01-15T10:55:36.889Z,6.33
2018-01-15T10:56:46.884Z,6.09
2018-01-15T10:57:56.978Z,5.98
2018-01-15T10:59:06.984Z,6.17
2018-01-15T11:00:17.892Z,6.43
2018-01-15T11:01:27.878Z,6.65
2018-01-15T11:02:37.902Z,7.05
2018-01-15T11:03:47.979Z,6.95
2018-01-15T11:04:57.960Z,6.97
2018-01-15T11:06:07.960Z,6.83
2018-01-15T11:07:17.964Z,6.79
2018-01-15T11:08:27.705Z,7.01
2018-01-15T11:09:37.794Z,7.16
2018-01-15T11:10:47.776Z,7.11
2018-01-15T11:11:57.339Z,6.98
2018-01-15T11:13:07.341Z,6.88
2018-01-15T11:14:17.082Z,7.01
2018-01-15T11:15:27.084Z,6.85
2018-01-15T11:16:36.911Z,6.55
2018-01-15T11:17:46.418Z,6.95
2018-01-15T11:18:56.409Z,7.26
2018-01-15T11:20:06.408Z,7.52
2018-01-15T11:21:16.664Z,7.67
2018-01-15T11:22:26.647Z,7.8
2018-01-15T11:23:36.678Z,7.92
2018-01-15T11:24:46.728Z,7.77
2018-01-15T11:25:56.727Z,7.15
2018-01-15T11:27:07.822Z,7.27
2018-01-15T11:28:17.549Z,7.52
2018-01-15T11:29:28.131Z,7.55
2018-01-15T11:30:37.870Z,7.41
2018-01-15T11:31:47.839Z,7.41
2018-01-15T11:32:57.840Z,7.67
2018-01-15T11:34:07.559Z,7.75
2018-01-15T11:35:17.555Z,7.89
2018-01-15T11:36:27.580Z,7.88
2018-01-15T11:37:37.585Z,7.83
2018-01-15T11:38:47.599Z,7.86
2018-01-15T11:39:57.603Z,7.93
2018-01-15T11:41:07.603Z,7.92
2018-01-15T11:42:17.581Z,7.92
2018-01-15T11:43:27.596Z,7.91
2018-01-15T11:44:37.860Z,7.89
2018-01-15T11:45:48.609Z,8.06
2018-01-15T11:46:58.611Z,7.91
2018-01-15T11:48:08.381Z,7.92
2018-01-15T11:49:18.407Z,8.03
2018-01-15T11:50:28.562Z,7.75
2018-01-15T11:51:38.562Z,7.58
2018-01-15T11:52:48.579Z,7.63
2018-01-15T11:53:58.560Z,7.73
2018-01-15T11:55:08.563Z,7.82
2018-01-15T11:56:18.566Z,7.99
2018-01-15T11:57:28.541Z,7.98
2018-01-15T11:58:38.254Z,7.96
2018-01-15T11:59:48.256Z,7.63
2018-01-15T12:00:58.236Z,7.48
2018-01-15T12:02:07.971Z,7.11
2018-01-15T12:03:17.698Z,6.82
2018-01-15T12:04:27.432Z,6.94
2018-01-15T12:05:37.178Z,6.73
2018-01-15T12:06:46.951Z,6.54
2018-01-15T12:07:56.996Z,6.44
2018-01-15T12:09:06.722Z,6.29
2018-01-15T12:10:16.461Z,6.17
2018-01-15T12:11:26.196Z,6.2
2018-01-15T12:12:35.927Z,5.98
2018-01-15T12:13:46.038Z,6.21
2018-01-15T12:14:55.770Z,6.15
2018-01-15T12:16:05.735Z,6.1
2018-01-15T12:17:15.804Z,6.14
2018-01-15T12:18:25.794Z,6.26
2018-01-15T12:19:35.975Z,6.37
2018-01-15T12:20:46.006Z,6.25
2018-01-15T12:21:56.061Z,6.14
2018-01-15T12:23:06.073Z,6.09
2018-01-15T12:24:16.095Z,6.14
2018-01-15T12:25:26.115Z,6.2
2018-01-15T12:26:36.119Z,6.15
2018-01-15T12:27:46.134Z,6.1
2018-01-15T12:28:56.138Z,5.99
2018-01-15T12:30:05.881Z,5.92
2018-01-15T12:31:15.686Z,5.82
2018-01-15T12:32:25.433Z,5.66
2018-01-15T12:33:35.452Z,5.63
2018-01-15T12:34:45.462Z,5.49
2018-01-15T12:35:55.453Z,5.39
2018-01-15T12:37:04.948Z,5.42
2018-01-15T12:38:14.944Z,5.39
2018-01-15T12:39:25.164Z,5.27
2018-01-15T12:40:34.902Z,5.39
2018-01-15T12:41:44.903Z,5.45
2018-01-15T12:42:54.637Z,5.37
2018-01-15T12:44:04.394Z,5.41
2018-01-15T12:45:14.450Z,5.34
2018-01-15T12:46:24.182Z,5.1
2018-01-15T12:47:34.174Z,5.16
2018-01-15T12:48:44.002Z,5.02
2018-01-15T12:49:53.993Z,5.08
2018-01-15T12:51:03.994Z,5.12
2018-01-15T12:52:13.989Z,5.21
2018-01-15T12:53:23.730Z,5.2
2018-01-15T12:54:33.729Z,5.1
2018-01-15T12:55:43.721Z,5.15
2018-01-15T12:56:53.748Z,5.06
2018-01-15T12:58:03.542Z,5
2018-01-15T12:59:13.351Z,4.92
2018-01-15T13:00:23.483Z,5
2018-01-15T13:01:33.570Z,4.85
2018-01-15T13:02:43.379Z,4.84
2018-01-15T13:03:53.432Z,5.51
2018-01-15T13:05:03.499Z,5.39
2018-01-15T13:06:13.601Z,5.26
2018-01-15T13:07:23.667Z,5.03
2018-01-15T13:08:33.736Z,4.92
2018-01-15T13:09:43.806Z,4.75
2018-01-15T13:10:53.602Z,4.69
2018-01-15T13:12:03.699Z,4.71
2018-01-15T13:13:13.489Z,4.71
2018-01-15T13:14:23.568Z,4.66
2018-01-15T13:15:33.382Z,4.72
2018-01-15T13:16:43.186Z,4.54
2018-01-15T13:17:53.242Z,4.6
2018-01-15T13:19:03.294Z,4.58
2018-01-15T13:20:13.853Z,4.32
2018-01-15T13:21:23.673Z,4.42
2018-01-15T13:22:33.760Z,4.42
2018-01-15T13:23:43.892Z,4.44
2018-01-15T13:24:53.950Z,4.35
2018-01-15T13:26:03.748Z,4.35
2018-01-15T13:27:13.535Z,4.29
2018-01-15T13:28:23.652Z,4.22
2018-01-15T13:29:33.701Z,4.17
2018-01-15T13:30:43.768Z,4.29
2018-01-15T13:31:53.572Z,4.2
2018-01-15T13:33:03.625Z,4.3
2018-01-15T13:34:13.676Z,4.29
2018-01-15T13:35:23.735Z,4.32
2018-01-15T13:36:33.788Z,4.22
2018-01-15T13:37:43.576Z,4.22
2018-01-15T13:38:53.458Z,4.17
2018-01-15T13:40:03.726Z,4.11
2018-01-15T13:41:13.562Z,4.07
2018-01-15T13:42:23.601Z,4.03
2018-01-15T13:43:33.851Z,4.04
2018-01-15T13:44:43.908Z,4.07
2018-01-15T13:45:53.944Z,4.07
2018-01-15T13:47:04.078Z,4.02
2018-01-15T13:48:14.208Z,4.03
2018-01-15T13:49:24.249Z,4.02
2018-01-15T13:50:34.303Z,3.94
2018-01-15T13:51:44.361Z,3.99
2018-01-15T13:52:54.196Z,3.97
2018-01-15T13:54:04.280Z,3.89
2018-01-15T13:55:14.444Z,3.84
2018-01-15T13:56:24.507Z,3.86
2018-01-15T13:57:34.302Z,3.76
2018-01-15T13:58:44.101Z,3.86
2018-01-15T13:59:54.173Z,3.78
2018-01-15T14:01:03.982Z,3.9
2018-01-15T14:02:14.949Z,3.85
2018-01-15T14:03:24.994Z,3.82
2018-01-15T14:04:35.064Z,3.74
2018-01-15T14:05:45.124Z,3.67
2018-01-15T14:06:55.208Z,3.69
2018-01-15T14:08:05.286Z,3.64
2018-01-15T14:09:14.811Z,3.66
2018-01-15T14:10:24.960Z,3.69
2018-01-15T14:11:35.044Z,3.72
2018-01-15T14:12:45.147Z,3.64
2018-01-15T14:13:54.694Z,3.66
2018-01-15T14:15:04.793Z,3.64
2018-01-15T14:16:14.878Z,3.64
2018-01-15T14:17:24.953Z,3.64
2018-01-15T14:18:35.015Z,3.71
2018-01-15T14:19:45.062Z,3.69
2018-01-15T14:20:56.340Z,3.66
2018-01-15T14:22:06.150Z,3.61
2018-01-15T14:23:16.208Z,3.71
2018-01-15T14:24:26.286Z,3.66
2018-01-15T14:25:36.355Z,3.63
2018-01-15T14:26:46.167Z,3.63
2018-01-15T14:27:56.222Z,3.63
2018-01-15T14:29:06.017Z,3.63
2018-01-15T14:30:16.080Z,3.57
2018-01-15T14:31:25.871Z,3.67
2018-01-15T14:32:35.937Z,3.69
2018-01-15T14:33:45.783Z,3.64
2018-01-15T14:34:55.837Z,3.67
2018-01-15T14:36:05.935Z,3.54
2018-01-15T14:37:15.760Z,3.56
2018-01-15T14:38:25.917Z,3.58
2018-01-15T14:39:36.059Z,3.51
2018-01-15T14:40:46.132Z,3.49
2018-01-15T14:41:56.214Z,3.43
2018-01-15T14:43:06.008Z,3.53
2018-01-15T14:44:16.071Z,3.43
2018-01-15T14:45:26.130Z,3.45
2018-01-15T14:46:35.953Z,3.45
2018-01-15T14:47:46.058Z,3.42
2018-01-15T14:48:56.120Z,3.46
2018-01-15T14:50:06.161Z,3.4
2018-01-15T14:51:16.224Z,3.35
2018-01-15T14:52:26.006Z,3.34
2018-01-15T14:53:36.934Z,3.43
2018-01-15T14:54:47.024Z,3.39
2018-01-15T14:55:57.085Z,3.42
2018-01-15T14:57:07.202Z,3.35
2018-01-15T14:58:17.272Z,3.35
2018-01-15T14:59:27.338Z,3.32
2018-01-15T15:00:37.378Z,3.37
2018-01-15T15:01:47.431Z,3.39
2018-01-15T15:02:57.532Z,3.24
2018-01-15T15:04:06.804Z,3.27
2018-01-15T15:05:16.874Z,3.23
2018-01-15T15:12:57.013Z,3.13
2018-01-15T15:14:06.891Z,3.16
2018-01-15T15:15:17.113Z,3.14
2018-01-15T15:16:26.918Z,3.14
2018-01-15T15:17:36.971Z,3.14
2018-01-15T15:18:47.246Z,3.17
2018-01-15T15:19:57.354Z,3.11
2018-01-15T15:21:07.401Z,3.16
2018-01-15T15:22:17.454Z,3.14
2018-01-15T15:23:27.242Z,3.26
2018-01-15T15:24:37.325Z,3.32
2018-01-15T15:25:47.363Z,3.24
2018-01-15T15:26:57.408Z,3.26
2018-01-15T15:28:07.477Z,3.21
2018-01-15T15:29:17.524Z,3.23
2018-01-15T15:30:27.544Z,3.23
2018-01-15T15:31:37.051Z,3.23
2018-01-15T15:32:46.607Z,3.26
2018-01-15T15:33:56.647Z,3.16
2018-01-15T15:35:06.704Z,3.14
2018-01-15T15:36:16.753Z,3.16
2018-01-15T15:37:26.528Z,3.09
2018-01-15T15:38:36.580Z,3.16
2018-01-15T15:39:46.637Z,3.11
2018-01-15T15:40:56.700Z,3.05
2018-01-15T15:42:06.728Z,3.13
2018-01-15T15:43:16.773Z,3.09
2018-01-15T15:44:26.825Z,3.09
2018-01-15T15:45:36.355Z,3.03
2018-01-15T15:46:46.406Z,3.13
2018-01-15T15:47:56.284Z,2.91
2018-01-15T15:49:06.948Z,2.93
2018-01-15T15:50:17.011Z,2.96
2018-01-15T15:51:27.060Z,2.96
2018-01-15T15:52:36.864Z,3.06
2018-01-15T15:53:46.707Z,3.09
2018-01-15T15:54:56.784Z,3.11
2018-01-15T15:56:06.834Z,3.02
2018-01-15T15:57:16.889Z,3.02
2018-01-15T15:58:26.965Z,2.96
2018-01-15T15:59:37.162Z,2.98
2018-01-15T16:00:47.224Z,3.03
2018-01-15T16:01:57.301Z,2.95
2018-01-15T16:03:07.306Z,2.91
2018-01-15T16:04:16.915Z,2.91
2018-01-15T16:05:26.756Z,2.87
2018-01-15T16:06:36.806Z,2.87
2018-01-15T16:07:46.615Z,2.91
2018-01-15T16:08:57.048Z,2.88
2018-01-15T16:10:07.239Z,2.87